Time;durP1;ratioP1;P1;durP2;ratioP2;P2;SDS_P1;SDS_P2;PMS_P1;PMS_P2;Temp;Humidity;BMP_temperature;BMP_pressure;BME280_temperature;BME280_humidity;BME280_pressure;Samples;Min_cycle;Max_cycle;Signal;HPM_P1;HPM_P2
2021/12/02 00:01:22;;;;;;;9.93;1.45;;;3.40;99.90;;;;;;4889459;28;20046;-84
2021/12/02 00:03:49;;;;;;;11.45;1.00;;;3.30;99.90;;;;;;4879955;29;20051;-86
2021/12/02 00:06:18;;;;;;;9.45;1.10;;;3.30;99.90;;;;;;4900695;29;20046;-85
2021/12/02 00:08:45;;;;;;;16.77;1.52;;;3.20;99.90;;;;;;4923811;29;20047;-84
2021/12/02 00:11:12;;;;;;;7.00;1.05;;;3.20;99.90;;;;;;4898879;28;20074;-87
2021/12/02 00:13:50;;;;;;;12.32;1.35;;;3.20;99.90;;;;;;4916313;29;20054;-85
2021/12/02 00:16:29;;;;;;;10.07;1.50;;;3.10;99.90;;;;;;4934530;29;20050;-84
2021/12/02 00:21:45;;;;;;;9.73;1.40;;;3.00;99.90;;;;;;4916087;29;20150;-85
2021/12/02 00:24:18;;;;;;;10.95;1.38;;;2.90;99.90;;;;;;4899105;28;20602;-86
2021/12/02 00:26:45;;;;;;;19.77;1.33;;;2.90;99.90;;;;;;4915423;28;20078;-88
2021/12/02 00:29:11;;;;;;;10.98;1.50;;;2.80;99.90;;;;;;4910905;28;20061;-85
2021/12/02 00:31:39;;;;;;;8.68;1.75;;;2.80;99.90;;;;;;4890018;29;20043;-85
2021/12/02 00:34:07;;;;;;;11.68;1.50;;;2.70;99.90;;;;;;4909965;29;20058;-84
2021/12/02 00:36:35;;;;;;;16.20;1.50;;;2.70;99.90;;;;;;4904877;29;20039;-83
2021/12/02 00:39:07;;;;;;;13.25;1.67;;;2.60;99.90;;;;;;4923777;29;20074;-85
2021/12/02 00:41:34;;;;;;;9.25;1.35;;;2.60;99.90;;;;;;4896333;29;20054;-84
2021/12/02 00:44:00;;;;;;;14.18;1.63;;;2.50;99.90;;;;;;4909122;28;20153;-85
2021/12/02 00:46:31;;;;;;;16.17;1.40;;;2.50;99.90;;;;;;4904305;29;20044;-85
2021/12/02 00:49:01;;;;;;;13.10;1.60;;;2.50;99.90;;;;;;4928511;28;20047;-83
2021/12/02 00:51:28;;;;;;;9.27;1.20;;;2.40;99.90;;;;;;4925940;28;20066;-84
2021/12/02 00:53:55;;;;;;;10.68;1.23;;;2.40;99.90;;;;;;4892642;29;21835;-87
2021/12/02 00:56:24;;;;;;;12.75;1.65;;;2.40;99.90;;;;;;4906472;28;20543;-85
2021/12/02 00:58:51;;;;;;;11.52;1.40;;;2.40;99.90;;;;;;4923756;28;20075;-85
2021/12/02 01:01:19;;;;;;;7.03;1.50;;;2.30;99.90;;;;;;4881263;28;20043;-82
2021/12/02 01:03:48;;;;;;;10.27;1.40;;;2.30;99.90;;;;;;4905634;28;20525;-84
2021/12/02 01:06:14;;;;;;;10.95;1.73;;;2.20;99.90;;;;;;4897328;29;20048;-84
2021/12/02 01:08:40;;;;;;;13.95;1.60;;;2.20;99.90;;;;;;4922845;29;20035;-86
2021/12/02 01:11:09;;;;;;;16.25;1.80;;;2.20;99.90;;;;;;4881962;29;20699;-83
2021/12/02 01:13:35;;;;;;;9.20;1.10;;;2.20;99.90;;;;;;4908737;28;20051;-87
2021/12/02 01:16:01;;;;;;;11.32;1.27;;;2.20;99.90;;;;;;4921547;29;20113;-83
2021/12/02 01:18:27;;;;;;;12.43;1.38;;;2.20;99.90;;;;;;4905417;29;20045;-84
2021/12/02 01:20:54;;;;;;;10.15;1.30;;;2.20;99.90;;;;;;4906026;29;20035;-84
2021/12/02 01:23:22;;;;;;;10.60;1.25;;;2.20;99.90;;;;;;4903675;29;20137;-88
2021/12/02 01:25:59;;;;;;;10.52;1.27;;;2.20;99.90;;;;;;4928954;28;20046;-86
2021/12/02 01:28:25;;;;;;;19.13;1.70;;;2.20;99.90;;;;;;4932773;29;20108;-88
2021/12/02 01:30:54;;;;;;;11.13;1.13;;;2.20;99.90;;;;;;4916791;29;20106;-84
2021/12/02 01:33:22;;;;;;;16.42;1.77;;;2.20;99.90;;;;;;4916069;29;20043;-85
2021/12/02 01:35:50;;;;;;;15.45;1.60;;;2.20;99.90;;;;;;4917775;29;20046;-86
2021/12/02 01:38:17;;;;;;;6.88;1.63;;;2.20;99.90;;;;;;4925411;28;20070;-85
2021/12/02 01:40:44;;;;;;;10.00;1.10;;;2.20;99.90;;;;;;4917840;28;20047;-85
2021/12/02 01:43:18;;;;;;;7.57;1.40;;;2.20;99.90;;;;;;4918703;29;20637;-86
2021/12/02 01:45:44;;;;;;;17.60;1.65;;;2.20;99.90;;;;;;4926417;28;20078;-83
2021/12/02 01:48:14;;;;;;;10.43;1.30;;;2.20;99.90;;;;;;4911376;29;20157;-87
2021/12/02 01:50:39;;;;;;;10.20;1.20;;;2.30;99.90;;;;;;4913995;29;20627;-84
2021/12/02 01:53:06;;;;;;;9.35;1.27;;;2.30;99.90;;;;;;4884113;29;20046;-87
2021/12/02 01:55:35;;;;;;;13.25;1.27;;;2.40;99.90;;;;;;4940014;28;20047;-84
2021/12/02 01:58:05;;;;;;;13.55;1.35;;;2.40;99.90;;;;;;4925378;29;20074;-83
2021/12/02 02:00:41;;;;;;;9.38;1.42;;;2.40;99.90;;;;;;4917091;29;20070;-84
2021/12/02 02:03:08;;;;;;;13.98;1.25;;;2.50;99.90;;;;;;4926229;28;20109;-84
2021/12/02 02:05:34;;;;;;;14.38;1.48;;;2.50;99.90;;;;;;4886932;28;20054;-86
2021/12/02 02:08:11;;;;;;;14.85;1.50;;;2.60;99.90;;;;;;4906533;29;20054;-86
2021/12/02 02:10:39;;;;;;;7.07;1.20;;;2.70;99.90;;;;;;4902664;29;20414;-87
2021/12/02 02:13:10;;;;;;;11.80;1.55;;;2.70;99.90;;;;;;4912353;28;20050;-86
2021/12/02 02:15:38;;;;;;;7.90;1.83;;;2.70;99.90;;;;;;4923349;28;20101;-86
2021/12/02 02:18:17;;;;;;;8.60;1.20;;;2.80;99.90;;;;;;4920200;29;20050;-86
2021/12/02 02:20:59;;;;;;;7.90;1.08;;;2.80;99.90;;;;;;4891259;29;20762;-86
2021/12/02 02:23:29;;;;;;;9.75;1.13;;;2.90;99.90;;;;;;4901760;29;20070;-87
2021/12/02 02:25:56;;;;;;;11.60;1.25;;;2.90;99.90;;;;;;4909233;28;20039;-87
2021/12/02 02:28:21;;;;;;;11.30;1.20;;;2.90;99.90;;;;;;4924142;29;20482;-84
2021/12/02 02:30:48;;;;;;;7.93;0.85;;;2.80;99.90;;;;;;4925494;29;20043;-87
2021/12/02 02:33:17;;;;;;;6.80;1.27;;;2.80;99.90;;;;;;4901387;29;20054;-86
2021/12/02 02:35:49;;;;;;;5.10;1.20;;;2.70;99.90;;;;;;4936964;29;21245;-90
2021/12/02 02:38:16;;;;;;;8.48;1.20;;;2.70;99.90;;;;;;4907660;29;20051;-85
2021/12/02 02:40:45;;;;;;;11.05;1.30;;;2.60;99.90;;;;;;4893537;29;20097;-87
2021/12/02 02:43:20;;;;;;;8.13;1.00;;;2.60;99.90;;;;;;4921805;29;20043;-84
2021/12/02 02:45:46;;;;;;;11.07;1.23;;;2.50;99.90;;;;;;4894128;29;20263;-85
2021/12/02 02:48:12;;;;;;;8.45;0.93;;;2.50;99.90;;;;;;4904428;28;20077;-84
2021/12/02 02:50:38;;;;;;;9.45;1.10;;;2.40;99.90;;;;;;4903832;29;20079;-86
2021/12/02 02:53:20;;;;;;;12.15;1.70;;;2.40;99.90;;;;;;4885228;29;20039;-84
2021/12/02 02:56:01;;;;;;;6.47;1.00;;;2.40;99.90;;;;;;4919386;29;20631;-84
2021/12/02 03:09:07;;;;;;;8.15;1.23;;;2.30;99.90;;;;;;4906906;29;20427;-83
2021/12/02 03:11:48;;;;;;;6.35;0.90;;;2.30;99.90;;;;;;4892446;28;20169;-85
2021/12/02 03:14:20;;;;;;;7.85;0.90;;;2.30;99.90;;;;;;4885073;29;20047;-84
2021/12/02 03:16:46;;;;;;;7.13;0.90;;;2.30;99.90;;;;;;4879857;28;20050;-86
2021/12/02 03:19:22;;;;;;;6.60;0.70;;;2.20;99.90;;;;;;4885356;28;20411;-86
2021/12/02 03:21:48;;;;;;;5.25;0.70;;;2.20;99.90;;;;;;4908781;29;20402;-86
2021/12/02 03:24:14;;;;;;;12.80;0.80;;;2.20;99.90;;;;;;4888537;29;20223;-85
2021/12/02 03:26:40;;;;;;;10.93;0.98;;;2.20;99.90;;;;;;4890756;29;20080;-85
2021/12/02 03:29:06;;;;;;;10.65;1.02;;;2.10;99.90;;;;;;4885607;29;20161;-85
2021/12/02 03:31:33;;;;;;;8.02;0.95;;;2.10;99.90;;;;;;4859670;28;20475;-88
2021/12/02 03:34:00;;;;;;;5.22;0.90;;;2.00;99.90;;;;;;4878376;28;20040;-86
2021/12/02 03:36:27;;;;;;;3.47;0.80;;;2.00;99.90;;;;;;4877567;28;20035;-86
2021/12/02 03:38:53;;;;;;;4.97;0.70;;;2.00;99.90;;;;;;4886898;29;20223;-88
2021/12/02 03:41:19;;;;;;;9.52;0.80;;;2.00;99.90;;;;;;4868442;28;20105;-85
2021/12/02 03:43:48;;;;;;;7.38;1.10;;;2.00;99.90;;;;;;4879282;29;20043;-85
2021/12/02 03:46:16;;;;;;;8.30;1.13;;;1.90;99.90;;;;;;4897319;29;20106;-84
2021/12/02 03:48:42;;;;;;;9.75;0.85;;;2.00;99.90;;;;;;4901671;28;20050;-86
2021/12/02 03:51:10;;;;;;;7.10;0.82;;;1.90;99.90;;;;;;4900665;29;20047;-85
2021/12/02 03:53:36;;;;;;;6.00;0.80;;;1.90;99.90;;;;;;4895262;29;20039;-86
2021/12/02 03:56:03;;;;;;;4.35;0.60;;;1.90;99.90;;;;;;4910728;29;20062;-86
2021/12/02 03:58:30;;;;;;;7.40;0.90;;;1.90;99.90;;;;;;4904712;29;20098;-84
2021/12/02 04:00:56;;;;;;;6.00;0.85;;;1.90;99.90;;;;;;4898964;29;20682;-85
2021/12/02 04:03:22;;;;;;;6.80;0.77;;;2.00;99.90;;;;;;4908222;29;20047;-86
2021/12/02 04:05:48;;;;;;;4.25;1.10;;;2.00;99.90;;;;;;4921839;29;20070;-84
2021/12/02 04:08:14;;;;;;;6.07;0.80;;;2.00;99.90;;;;;;4907524;28;20067;-84
2021/12/02 04:10:41;;;;;;;3.15;0.75;;;2.00;99.90;;;;;;4886292;28;20161;-86
2021/12/02 04:13:14;;;;;;;5.90;0.73;;;2.00;99.90;;;;;;4912166;29;20039;-84
2021/12/02 04:15:41;;;;;;;5.88;0.70;;;2.00;99.90;;;;;;4914535;28;22890;-83
2021/12/02 04:18:07;;;;;;;5.90;0.80;;;1.90;99.90;;;;;;4919274;29;20045;-83
2021/12/02 04:20:34;;;;;;;4.60;0.85;;;1.90;99.90;;;;;;4913320;29;20039;-85
2021/12/02 04:23:00;;;;;;;8.45;1.33;;;1.90;99.90;;;;;;4911180;29;20077;-85
2021/12/02 04:25:26;;;;;;;7.15;0.98;;;1.80;99.90;;;;;;4908079;28;20553;-86
2021/12/02 04:27:53;;;;;;;7.45;1.10;;;1.80;99.90;;;;;;4891158;29;20121;-83
2021/12/02 04:30:23;;;;;;;11.10;1.30;;;1.80;99.90;;;;;;4917229;28;20679;-85
2021/12/02 04:32:49;;;;;;;7.72;1.33;;;1.80;99.90;;;;;;4897909;28;20066;-84
2021/12/02 04:35:15;;;;;;;3.15;0.93;;;1.80;99.90;;;;;;4888613;29;20043;-85
2021/12/02 04:37:43;;;;;;;8.50;1.15;;;1.70;99.90;;;;;;4879217;29;20043;-85
2021/12/02 04:40:12;;;;;;;7.80;1.10;;;1.70;99.90;;;;;;4892826;29;20071;-84
2021/12/02 04:42:38;;;;;;;3.58;1.10;;;1.60;99.90;;;;;;4909327;28;20051;-85
2021/12/02 04:45:04;;;;;;;6.38;1.10;;;1.60;99.90;;;;;;4899386;29;20049;-84
2021/12/02 04:47:31;;;;;;;7.38;1.40;;;1.50;99.90;;;;;;4894096;29;20054;-84
2021/12/02 04:49:56;;;;;;;3.55;1.23;;;1.50;99.90;;;;;;4917085;29;20047;-86
2021/12/02 04:52:22;;;;;;;5.20;1.35;;;1.40;99.90;;;;;;4889208;29;20047;-86
2021/12/02 04:54:48;;;;;;;4.88;0.95;;;1.40;99.90;;;;;;4872515;28;20039;-85
2021/12/02 04:57:14;;;;;;;7.85;1.20;;;1.40;99.90;;;;;;4884660;29;20039;-85
2021/12/02 04:59:40;;;;;;;4.45;1.00;;;1.30;99.90;;;;;;4878700;28;20494;-84
2021/12/02 05:02:05;;;;;;;4.15;1.02;;;1.40;99.90;;;;;;4905922;29;20040;-84
2021/12/02 05:04:31;;;;;;;9.85;1.30;;;1.30;99.90;;;;;;4865827;29;20071;-86
2021/12/02 05:06:57;;;;;;;18.60;1.55;;;1.30;99.90;;;;;;4873489;29;20047;-84
2021/12/02 05:09:22;;;;;;;5.30;1.40;;;1.30;99.90;;;;;;4920539;29;20151;-85
2021/12/02 05:11:48;;;;;;;7.90;1.35;;;1.40;99.90;;;;;;4897177;28;20344;-84
2021/12/02 05:14:14;;;;;;;7.82;1.33;;;1.30;99.90;;;;;;4910983;29;20066;-86
2021/12/02 05:16:40;;;;;;;5.93;1.80;;;1.40;99.90;;;;;;4883888;29;20051;-83
2021/12/02 05:19:06;;;;;;;10.02;1.92;;;1.40;99.90;;;;;;4887060;28;20106;-84
2021/12/02 05:21:32;;;;;;;10.88;1.95;;;1.40;99.90;;;;;;4895907;29;20055;-85
2021/12/02 05:23:58;;;;;;;9.95;1.35;;;1.40;99.90;;;;;;4880441;28;20039;-88
2021/12/02 05:26:25;;;;;;;7.57;1.75;;;1.40;99.90;;;;;;4915500;29;20102;-85
2021/12/02 05:28:52;;;;;;;4.60;1.40;;;1.40;99.90;;;;;;4913261;28;20054;-87
2021/12/02 05:31:18;;;;;;;8.65;1.50;;;1.40;99.90;;;;;;4872735;29;20039;-85
2021/12/02 05:33:44;;;;;;;8.10;1.50;;;1.50;99.90;;;;;;4899701;29;21396;-87
2021/12/02 05:36:10;;;;;;;5.75;1.02;;;1.50;99.90;;;;;;4898347;29;20379;-86
2021/12/02 05:38:36;;;;;;;4.53;1.08;;;1.50;99.90;;;;;;4904698;29;20406;-85
2021/12/02 05:41:03;;;;;;;6.53;1.25;;;1.50;99.90;;;;;;4876459;28;20419;-86
2021/12/02 05:43:29;;;;;;;8.48;1.05;;;1.50;99.90;;;;;;4894253;29;21161;-84
2021/12/02 05:45:55;;;;;;;4.78;0.82;;;1.50;99.90;;;;;;4877664;29;20054;-85
2021/12/02 05:48:21;;;;;;;5.88;1.10;;;1.50;99.90;;;;;;4910515;29;20413;-84
2021/12/02 05:50:46;;;;;;;8.23;1.10;;;1.50;99.90;;;;;;4893341;29;20047;-85
2021/12/02 05:53:12;;;;;;;3.13;0.80;;;1.60;99.90;;;;;;4907608;28;20571;-87
2021/12/02 05:55:38;;;;;;;5.82;0.80;;;1.50;99.90;;;;;;4880177;28;20405;-83
2021/12/02 05:58:06;;;;;;;4.25;0.77;;;1.50;99.90;;;;;;4862667;28;20039;-84
2021/12/02 06:00:33;;;;;;;9.85;1.70;;;1.50;99.90;;;;;;4893941;29;20502;-84
2021/12/02 06:02:59;;;;;;;4.22;1.30;;;1.50;99.90;;;;;;4894058;29;20058;-84
2021/12/02 06:05:25;;;;;;;9.82;0.98;;;1.40;99.90;;;;;;4909069;29;20039;-86
2021/12/02 06:07:53;;;;;;;4.93;1.20;;;1.50;99.90;;;;;;4905070;28;20213;-85
2021/12/02 06:10:19;;;;;;;1.80;1.08;;;1.60;99.90;;;;;;4872310;28;20473;-84
2021/12/02 06:12:45;;;;;;;2.67;1.00;;;1.50;99.90;;;;;;4896166;28;20054;-85
2021/12/02 06:15:12;;;;;;;5.57;0.93;;;1.60;99.90;;;;;;4895686;29;20398;-85
2021/12/02 06:17:38;;;;;;;5.93;0.90;;;1.60;99.90;;;;;;4904803;29;20574;-86
2021/12/02 06:20:11;;;;;;;7.18;1.15;;;1.60;99.90;;;;;;4878566;28;20202;-85
2021/12/02 06:22:37;;;;;;;10.82;1.83;;;1.60;99.90;;;;;;4891490;29;20082;-87
2021/12/02 06:27:40;;;;;;;8.25;1.70;;;1.50;99.90;;;;;;4926422;28;20055;-87
2021/12/02 06:30:06;;;;;;;3.08;1.00;;;1.50;99.90;;;;;;4884868;28;20053;-85
2021/12/02 06:32:32;;;;;;;4.00;1.08;;;1.50;99.90;;;;;;4908660;29;20047;-86
2021/12/02 06:34:58;;;;;;;5.40;1.88;;;1.40;99.90;;;;;;4898020;29;20498;-86
2021/12/02 06:37:25;;;;;;;6.50;1.30;;;1.40;99.90;;;;;;4885832;29;20355;-84
2021/12/02 06:39:51;;;;;;;6.35;1.08;;;1.40;99.90;;;;;;4875974;29;20043;-86
2021/12/02 06:42:17;;;;;;;9.77;1.30;;;1.40;99.90;;;;;;4912712;29;20043;-86
2021/12/02 06:44:43;;;;;;;9.32;1.42;;;1.40;99.90;;;;;;4874724;29;20399;-87
2021/12/02 06:47:09;;;;;;;5.53;1.42;;;1.40;99.90;;;;;;4906644;29;20117;-87
2021/12/02 06:49:37;;;;;;;5.03;1.10;;;1.40;99.90;;;;;;4922276;29;20043;-85
2021/12/02 06:52:09;;;;;;;8.00;1.40;;;1.40;99.90;;;;;;4891116;28;20106;-87
2021/12/02 06:54:34;;;;;;;5.90;1.20;;;1.40;99.90;;;;;;4891488;29;20043;-84
2021/12/02 06:57:00;;;;;;;9.85;1.27;;;1.40;99.90;;;;;;4901459;29;20280;-84
2021/12/02 06:59:26;;;;;;;9.15;1.10;;;1.40;99.90;;;;;;4898195;29;20161;-86
2021/12/02 07:01:52;;;;;;;4.70;1.30;;;1.40;99.90;;;;;;4897985;29;20525;-86
2021/12/02 07:04:18;;;;;;;7.88;1.27;;;1.40;99.90;;;;;;4909148;29;20134;-85
2021/12/02 07:06:44;;;;;;;8.88;1.30;;;1.40;99.90;;;;;;4862840;29;20035;-87
2021/12/02 07:09:10;;;;;;;5.57;1.25;;;1.40;99.90;;;;;;4893569;29;20047;-84
2021/12/02 07:11:36;;;;;;;6.65;1.40;;;1.40;99.90;;;;;;4877737;29;20051;-84
2021/12/02 07:14:09;;;;;;;3.60;1.25;;;1.40;99.90;;;;;;4921844;28;20054;-85
2021/12/02 07:16:35;;;;;;;;;;;1.50;99.90;;;;;;4880307;28;20398;-86
2021/12/02 07:19:09;;;;;;;7.35;1.30;;;1.50;99.90;;;;;;4891094;29;19922;-87
2021/12/02 07:21:38;;;;;;;2.88;1.10;;;1.50;99.90;;;;;;4897952;29;20043;-85
2021/12/02 07:24:13;;;;;;;5.28;2.00;;;1.50;99.90;;;;;;4883479;29;20047;-87
2021/12/02 07:26:41;;;;;;;12.52;2.28;;;1.50;99.90;;;;;;4890758;29;20046;-86
2021/12/02 07:29:17;;;;;;;16.48;2.90;;;1.50;99.90;;;;;;4909794;29;20063;-85
2021/12/02 07:31:43;;;;;;;11.60;2.25;;;1.50;99.90;;;;;;4912912;29;20368;-86
2021/12/02 07:34:10;;;;;;;11.80;1.83;;;1.60;99.90;;;;;;4877838;29;20181;-87
2021/12/02 07:36:37;;;;;;;9.35;2.67;;;1.60;99.90;;;;;;4916221;28;20572;-84
2021/12/02 07:39:06;;;;;;;5.32;1.88;;;1.60;99.90;;;;;;4901149;29;20039;-86
2021/12/02 07:41:42;;;;;;;8.25;1.55;;;1.60;99.90;;;;;;4907908;29;20035;-85
2021/12/02 07:44:13;;;;;;;7.43;1.27;;;1.60;99.90;;;;;;4920429;29;20391;-85
2021/12/02 07:46:40;;;;;;;13.10;1.63;;;1.60;99.90;;;;;;4873169;29;20101;-86
2021/12/02 07:49:05;;;;;;;8.73;1.55;;;1.60;99.90;;;;;;4910206;29;20047;-85
2021/12/02 07:51:34;;;;;;;3.80;1.30;;;1.60;99.90;;;;;;4893082;29;20043;-87
2021/12/02 07:54:02;;;;;;;7.75;1.33;;;1.70;99.90;;;;;;4905130;29;21315;-85
2021/12/02 07:56:31;;;;;;;8.88;1.73;;;1.70;99.90;;;;;;4901261;29;20050;-87
2021/12/02 07:58:57;;;;;;;8.57;1.50;;;1.70;99.90;;;;;;4898104;29;20046;-86
2021/12/02 08:01:23;;;;;;;8.43;1.98;;;1.70;99.90;;;;;;4890736;28;20043;-85
2021/12/02 08:03:49;;;;;;;10.32;2.85;;;1.80;99.90;;;;;;4864903;29;20047;-84
2021/12/02 08:06:15;;;;;;;9.77;2.80;;;1.80;99.90;;;;;;4889274;29;20183;-84
2021/12/02 08:08:43;;;;;;;11.85;3.10;;;1.80;99.90;;;;;;4874133;29;21000;-85
2021/12/02 08:11:10;;;;;;;8.55;3.20;;;1.90;99.90;;;;;;4894123;29;20054;-84
2021/12/02 08:13:36;;;;;;;14.18;3.55;;;1.90;99.90;;;;;;4883063;29;20039;-86
2021/12/02 08:16:06;;;;;;;12.27;4.03;;;1.90;99.90;;;;;;4893382;29;20038;-84
2021/12/02 08:18:39;;;;;;;12.45;3.72;;;2.00;99.90;;;;;;4882402;29;20065;-86
2021/12/02 08:21:06;;;;;;;12.43;4.22;;;2.00;99.90;;;;;;4897063;29;20524;-86
2021/12/02 08:23:32;;;;;;;12.32;4.28;;;2.00;99.90;;;;;;4882579;29;20039;-85
2021/12/02 08:25:58;;;;;;;13.27;4.63;;;2.00;99.90;;;;;;4871323;29;20513;-86
2021/12/02 08:28:23;;;;;;;12.40;5.30;;;2.10;99.90;;;;;;4878039;29;20035;-86
2021/12/02 08:30:50;;;;;;;16.98;5.25;;;2.10;99.90;;;;;;4868621;29;20253;-85
2021/12/02 08:33:18;;;;;;;11.07;4.75;;;2.10;99.90;;;;;;4895585;29;20082;-85
2021/12/02 08:35:44;;;;;;;15.50;5.72;;;2.20;99.90;;;;;;4897686;29;20082;-86
2021/12/02 08:38:12;;;;;;;17.20;5.18;;;2.20;99.90;;;;;;4889955;29;20370;-83
2021/12/02 08:40:40;;;;;;;19.65;6.05;;;2.20;99.90;;;;;;4888503;29;20040;-83
2021/12/02 08:43:08;;;;;;;34.00;13.40;;;2.20;99.90;;;;;;4885998;29;20046;-83
2021/12/02 08:45:36;;;;;;;43.50;15.93;;;2.20;99.90;;;;;;4900843;29;20504;-84
2021/12/02 08:48:03;;;;;;;34.88;12.98;;;2.20;99.90;;;;;;4890590;29;20071;-85
2021/12/02 08:50:30;;;;;;;21.20;9.15;;;2.20;99.90;;;;;;4901989;29;20091;-83
2021/12/02 08:52:57;;;;;;;12.48;4.95;;;2.10;99.90;;;;;;4884856;29;20039;-83
2021/12/02 08:55:24;;;;;;;13.95;4.53;;;2.20;99.90;;;;;;4894302;29;20207;-84
2021/12/02 08:57:51;;;;;;;12.55;4.47;;;2.20;99.90;;;;;;4885856;29;20047;-84
2021/12/02 09:00:20;;;;;;;13.45;4.75;;;2.20;99.90;;;;;;4910636;29;20043;-85
2021/12/02 09:02:46;;;;;;;12.60;5.30;;;2.20;99.90;;;;;;4926049;29;20508;-84
2021/12/02 09:05:13;;;;;;;14.35;6.07;;;2.20;99.90;;;;;;4901821;29;20081;-84
2021/12/02 09:07:39;;;;;;;12.82;5.53;;;2.20;99.90;;;;;;4888569;29;20821;-84
2021/12/02 09:10:07;;;;;;;12.20;5.80;;;2.20;99.90;;;;;;4884961;28;21813;-85
2021/12/02 09:12:33;;;;;;;11.27;5.30;;;2.20;99.90;;;;;;4859250;29;20133;-85
2021/12/02 09:14:59;;;;;;;11.85;4.78;;;2.20;99.90;;;;;;4904474;29;20035;-86
2021/12/02 09:17:25;;;;;;;10.93;4.82;;;2.20;99.90;;;;;;4904154;28;20047;-85
2021/12/02 09:19:51;;;;;;;12.18;5.10;;;2.20;99.90;;;;;;4856289;29;20662;-85
2021/12/02 09:22:17;;;;;;;9.23;4.50;;;2.20;99.90;;;;;;4869691;29;20097;-84
2021/12/02 09:24:42;;;;;;;9.13;4.10;;;2.20;99.90;;;;;;4902338;29;20047;-84
2021/12/02 09:27:09;;;;;;;13.38;4.22;;;2.30;99.90;;;;;;4895904;29;20049;-86
2021/12/02 09:29:35;;;;;;;10.35;4.47;;;2.30;99.90;;;;;;4891676;29;20573;-86
2021/12/02 09:32:02;;;;;;;11.32;4.13;;;2.40;99.90;;;;;;4920197;28;20051;-85
2021/12/02 09:34:28;;;;;;;11.70;4.40;;;2.40;99.90;;;;;;4888758;29;20659;-85
2021/12/02 09:36:54;;;;;;;10.80;3.72;;;2.50;99.90;;;;;;4893418;29;20043;-85
2021/12/02 09:39:20;;;;;;;11.45;4.35;;;2.50;99.90;;;;;;4919751;29;20393;-86
2021/12/02 09:41:46;;;;;;;12.70;5.85;;;2.70;99.90;;;;;;4883818;29;20101;-85
2021/12/02 09:44:13;;;;;;;19.40;5.85;;;2.70;99.90;;;;;;4864391;29;20050;-84
2021/12/02 09:46:40;;;;;;;9.98;4.60;;;2.80;99.90;;;;;;4906211;29;20182;-85
2021/12/02 09:49:10;;;;;;;17.25;5.80;;;2.90;99.90;;;;;;4895018;29;20786;-84
2021/12/02 09:54:21;;;;;;;11.25;3.20;;;3.10;99.90;;;;;;4891055;29;20047;-85
2021/12/02 09:56:49;;;;;;;8.05;2.95;;;3.20;99.90;;;;;;4868339;29;20035;-84
2021/12/02 09:59:28;;;;;;;10.88;3.10;;;3.30;99.90;;;;;;4889443;29;20035;-86
2021/12/02 10:02:00;;;;;;;5.70;2.90;;;3.40;99.90;;;;;;4866191;29;21661;-86
2021/12/02 10:04:27;;;;;;;6.65;2.80;;;3.40;99.90;;;;;;4889785;29;20647;-85
2021/12/02 10:07:19;;;;;;;6.68;3.03;;;3.40;99.90;;;;;;4888232;28;20043;-85
2021/12/02 10:10:05;;;;;;;5.35;2.60;;;3.50;99.90;;;;;;4920705;28;20050;-85
2021/12/02 10:12:34;;;;;;;7.50;3.10;;;3.50;99.90;;;;;;4909779;29;20138;-86
2021/12/02 10:15:06;;;;;;;4.22;2.40;;;3.60;99.90;;;;;;4921672;29;20403;-85
2021/12/02 10:17:42;;;;;;;5.53;2.40;;;3.70;99.90;;;;;;4879549;29;21860;-85
2021/12/02 10:20:39;;;;;;;4.15;2.22;;;3.70;99.90;;;;;;4889431;28;20377;-85
2021/12/02 10:23:08;;;;;;;3.63;1.80;;;3.80;99.90;;;;;;4918320;29;20086;-84
2021/12/02 10:25:35;;;;;;;7.35;1.83;;;3.80;99.90;;;;;;4908714;29;20044;-85
2021/12/02 10:28:10;;;;;;;6.45;1.70;;;3.90;99.90;;;;;;4872047;29;20099;-84
2021/12/02 10:30:45;;;;;;;4.20;1.88;;;3.90;99.90;;;;;;4892007;29;20050;-85
2021/12/02 10:33:12;;;;;;;2.13;1.45;;;4.00;99.90;;;;;;4912869;29;20098;-86
2021/12/02 10:35:45;;;;;;;5.75;1.70;;;4.20;99.90;;;;;;4921390;29;20057;-84
2021/12/02 10:38:31;;;;;;;4.85;1.40;;;4.20;99.90;;;;;;4909609;29;21670;-85
2021/12/02 10:40:59;;;;;;;3.08;1.05;;;4.20;99.90;;;;;;4894100;29;20055;-86
2021/12/02 10:43:25;;;;;;;4.55;1.30;;;4.20;99.90;;;;;;4884898;29;20573;-85
2021/12/02 10:45:51;;;;;;;4.00;1.45;;;4.10;99.90;;;;;;4889547;29;20058;-84
2021/12/02 10:48:19;;;;;;;12.35;1.95;;;4.00;99.90;;;;;;4876648;29;20097;-88
2021/12/02 10:50:45;;;;;;;5.95;1.63;;;3.80;99.90;;;;;;4902082;29;20432;-84
2021/12/02 10:53:11;;;;;;;3.20;1.23;;;3.70;99.90;;;;;;4894449;29;20074;-84
2021/12/02 10:55:36;;;;;;;3.75;1.40;;;3.70;99.90;;;;;;4885596;29;20047;-85
2021/12/02 10:58:03;;;;;;;1.48;0.60;;;3.50;99.90;;;;;;4887783;29;20133;-84
2021/12/02 11:00:40;;;;;;;4.85;0.77;;;3.40;99.90;;;;;;4881023;29;20360;-85
2021/12/02 11:03:13;;;;;;;3.75;0.63;;;3.10;99.90;;;;;;4901203;29;20039;-84
2021/12/02 11:05:46;;;;;;;3.28;0.63;;;3.00;99.90;;;;;;4889213;29;20409;-84
2021/12/02 11:08:13;;;;;;;4.30;0.80;;;2.80;99.90;;;;;;4886442;29;20039;-82
2021/12/02 11:10:43;;;;;;;4.22;0.90;;;2.80;99.90;;;;;;4893589;29;20114;-84
2021/12/02 11:13:10;;;;;;;2.88;0.77;;;2.70;99.90;;;;;;4904819;29;20043;-83
2021/12/02 11:15:39;;;;;;;6.93;1.08;;;2.70;99.90;;;;;;4875436;29;20047;-83
2021/12/02 11:18:10;;;;;;;2.90;0.77;;;2.70;99.90;;;;;;4901619;29;20106;-84
2021/12/02 11:20:39;;;;;;;3.20;1.20;;;2.70;99.90;;;;;;4917990;28;20039;-84
2021/12/02 11:23:18;;;;;;;6.68;2.17;;;2.80;99.90;;;;;;4892163;29;20043;-82
2021/12/02 11:25:57;;;;;;;5.78;1.42;;;2.80;99.90;;;;;;4912058;29;20051;-82
2021/12/02 11:28:25;;;;;;;4.35;1.48;;;2.90;99.90;;;;;;4903765;29;20058;-84
2021/12/02 11:30:51;;;;;;;1.95;0.60;;;2.90;99.90;;;;;;4899249;28;20070;-85
2021/12/02 11:33:19;;;;;;;2.10;0.60;;;2.90;99.90;;;;;;4887709;29;20565;-83
2021/12/02 11:35:47;;;;;;;3.47;0.50;;;2.90;99.90;;;;;;4906878;29;20170;-84
2021/12/02 11:38:21;;;;;;;3.05;0.70;;;2.80;99.90;;;;;;4904142;29;20043;-85
2021/12/02 11:40:58;;;;;;;2.85;0.60;;;2.80;99.90;;;;;;4884994;29;20082;-83
2021/12/02 11:43:35;;;;;;;3.78;1.00;;;2.70;99.90;;;;;;4883582;29;20039;-85
2021/12/02 11:46:04;;;;;;;6.90;0.98;;;2.70;99.90;;;;;;4921660;29;20043;-84
2021/12/02 11:48:37;;;;;;;5.60;1.00;;;2.60;99.90;;;;;;4890466;29;20398;-82
2021/12/02 11:51:07;;;;;;;2.70;0.77;;;2.50;99.90;;;;;;4909189;29;20039;-84
2021/12/02 11:53:33;;;;;;;6.90;1.10;;;2.60;99.90;;;;;;4890339;29;20043;-83
2021/12/02 11:56:05;;;;;;;2.78;0.70;;;2.60;99.90;;;;;;4877688;29;20043;-84
2021/12/02 11:58:31;;;;;;;2.28;0.60;;;2.50;99.90;;;;;;4902786;29;20394;-84
2021/12/02 12:00:57;;;;;;;1.88;0.88;;;2.50;99.90;;;;;;4879217;29;20038;-83
2021/12/02 12:03:32;;;;;;;1.45;0.90;;;2.40;99.90;;;;;;4907121;28;20082;-83
2021/12/02 12:06:07;;;;;;;1.77;0.90;;;2.40;99.90;;;;;;4932698;29;20087;-83
2021/12/02 12:08:36;;;;;;;7.05;1.02;;;2.30;99.90;;;;;;4944813;29;20043;-83
2021/12/02 12:11:30;;;;;;;2.08;1.00;;;2.30;99.90;;;;;;4936891;28;20039;-83
2021/12/02 12:14:02;;;;;;;3.28;1.13;;;2.30;99.90;;;;;;4897158;29;20181;-82
2021/12/02 12:16:42;;;;;;;1.83;1.00;;;2.40;99.90;;;;;;4904365;29;20039;-83
2021/12/02 12:19:28;;;;;;;1.13;0.80;;;2.40;99.90;;;;;;4923222;29;20205;-84
2021/12/02 12:21:57;;;;;;;3.88;1.00;;;2.50;99.90;;;;;;4923578;28;20051;-84
2021/12/02 12:24:48;;;;;;;4.13;0.90;;;2.60;99.90;;;;;;4878876;29;20050;-82
2021/12/02 12:27:13;;;;;;;1.15;0.82;;;2.80;99.90;;;;;;4915360;29;20071;-83
2021/12/02 12:29:40;;;;;;;2.13;0.75;;;2.90;99.90;;;;;;4904943;29;20154;-83
2021/12/02 12:32:31;;;;;;;1.58;0.75;;;3.00;99.90;;;;;;4892518;29;20546;-84
2021/12/02 12:35:19;;;;;;;4.15;0.80;;;3.00;99.90;;;;;;4922870;28;20073;-82
2021/12/02 12:40:13;;;;;;;6.07;0.80;;;2.90;99.90;;;;;;4892476;28;20165;-83
2021/12/02 12:42:52;;;;;;;2.85;1.10;;;2.90;99.90;;;;;;4920417;29;20036;-83
2021/12/02 12:45:27;;;;;;;5.18;1.55;;;2.80;99.90;;;;;;4907928;29;20946;-84
2021/12/02 12:47:59;;;;;;;3.33;1.20;;;2.80;99.90;;;;;;4885936;29;20143;-84
2021/12/02 12:50:34;;;;;;;1.90;1.27;;;2.70;99.90;;;;;;4927922;29;20078;-83
2021/12/02 12:53:06;;;;;;;3.25;1.35;;;2.70;99.90;;;;;;4936604;29;20754;-85
2021/12/02 12:55:34;;;;;;;2.10;1.48;;;2.70;99.90;;;;;;4933836;28;20035;-84
2021/12/02 12:58:12;;;;;;;4.85;1.98;;;2.80;99.90;;;;;;4919323;29;20538;-84
2021/12/02 13:00:46;;;;;;;5.13;2.95;;;2.80;99.90;;;;;;4927119;28;20099;-85
2021/12/02 13:03:17;;;;;;;3.63;2.88;;;2.80;99.90;;;;;;4930532;29;20510;-85
2021/12/02 13:05:56;;;;;;;3.33;2.35;;;2.70;99.90;;;;;;4921040;28;20047;-83
2021/12/02 13:08:31;;;;;;;3.80;2.50;;;2.60;99.90;;;;;;4931758;28;20043;-84
2021/12/02 13:10:59;;;;;;;4.53;2.10;;;2.50;99.90;;;;;;4926644;29;20051;-83
2021/12/02 13:13:33;;;;;;;5.05;1.70;;;2.40;99.90;;;;;;4930518;29;20044;-82
2021/12/02 13:16:19;;;;;;;4.10;2.13;;;2.40;99.90;;;;;;4929883;29;20399;-84
2021/12/02 13:18:51;;;;;;;3.00;1.63;;;2.30;99.90;;;;;;4934316;28;20039;-84
2021/12/02 13:21:35;;;;;;;2.47;1.35;;;2.30;99.90;;;;;;4919306;29;20114;-85
2021/12/02 13:24:17;;;;;;;5.65;1.92;;;2.20;99.90;;;;;;4907350;29;20155;-83